Time;durP1;ratioP1;P1;durP2;ratioP2;P2;SDS_P1;SDS_P2;PMS_P1;PMS_P2;Temp;Humidity;BMP_temperature;BMP_pressure;BME280_temperature;BME280_humidity;BME280_pressure;Samples;Min_cycle;Max_cycle;Signal;HPM_P1;HPM_P2
2023/03/05 00:00:26;;;;;;;13.30;5.18;;;;;;;3.76;62.34;101153.78;5015854;28;20050;-55
2023/03/05 00:02:53;;;;;;;17.13;5.78;;;;;;;3.75;62.26;101154.56;5010943;28;20069;-56
2023/03/05 00:05:19;;;;;;;14.05;6.03;;;;;;;3.75;62.58;101154.56;5011098;28;20056;-57
2023/03/05 00:07:47;;;;;;;12.98;5.72;;;;;;;3.75;62.73;101149.44;5011420;28;20136;-53
2023/03/05 00:10:14;;;;;;;14.30;5.65;;;;;;;3.74;62.71;101145.13;5011594;28;20057;-53
2023/03/05 00:12:41;;;;;;;14.57;6.75;;;;;;;3.73;62.88;101143.38;5011611;28;20069;-57
2023/03/05 00:15:08;;;;;;;16.77;6.60;;;;;;;3.74;62.68;101142.56;5009956;28;20567;-54
2023/03/05 00:17:35;;;;;;;17.33;6.43;;;;;;;3.73;62.41;101138.25;5012265;28;20053;-54
2023/03/05 00:20:01;;;;;;;15.77;5.93;;;;;;;3.71;62.69;101130.50;5011010;28;20044;-54
2023/03/05 00:22:28;;;;;;;17.83;5.97;;;;;;;3.67;62.40;101122.63;5009458;28;20123;-54
2023/03/05 00:24:54;;;;;;;19.08;5.88;;;;;;;3.65;63.36;101121.69;5010189;28;20131;-57
2023/03/05 00:27:21;;;;;;;16.60;6.47;;;;;;;3.62;62.80;101119.00;5009780;28;20128;-57
2023/03/05 00:29:48;;;;;;;13.23;6.60;;;;;;;3.63;62.61;101121.63;5013890;28;20116;-56
2023/03/05 00:32:14;;;;;;;15.00;6.15;;;;;;;3.62;63.11;101124.13;5016381;28;20073;-54
2023/03/05 00:34:41;;;;;;;14.73;6.68;;;;;;;3.60;62.72;101127.50;5011912;28;20092;-55
2023/03/05 00:37:08;;;;;;;16.15;5.40;;;;;;;3.62;63.23;101119.00;5010931;28;20073;-56
2023/03/05 00:39:34;;;;;;;17.40;6.78;;;;;;;3.62;63.00;101119.00;5011314;28;20057;-55
2023/03/05 00:42:01;;;;;;;14.32;6.72;;;;;;;3.62;63.30;101119.00;5008465;28;20070;-56
2023/03/05 00:44:27;;;;;;;17.58;6.50;;;;;;;3.62;62.90;101108.75;5014273;28;20042;-53
2023/03/05 00:46:54;;;;;;;19.55;6.40;;;;;;;3.63;62.70;101110.47;5010803;28;20074;-53
2023/03/05 00:49:21;;;;;;;14.63;6.30;;;;;;;3.63;63.04;101110.47;5010999;28;20065;-57
2023/03/05 00:51:47;;;;;;;16.40;5.75;;;;;;;3.64;63.14;101115.69;5012868;28;20050;-54
2023/03/05 00:54:14;;;;;;;16.05;6.28;;;;;;;3.63;63.48;101105.34;5012182;28;20095;-56
2023/03/05 00:56:40;;;;;;;16.27;6.40;;;;;;;3.62;63.75;101108.75;5011130;28;20069;-56
2023/03/05 00:59:07;;;;;;;15.18;5.15;;;;;;;3.60;63.28;101107.00;5010855;28;20053;-56
2023/03/05 01:01:33;;;;;;;14.68;6.30;;;;;;;3.59;63.69;101099.25;5013574;28;20072;-56
2023/03/05 01:04:00;;;;;;;17.23;5.53;;;;;;;3.57;63.18;101101.72;5010137;28;20127;-56
2023/03/05 01:06:28;;;;;;;15.57;6.18;;;;;;;3.57;63.32;101091.47;5012415;28;20059;-54
2023/03/05 01:08:55;;;;;;;11.57;4.50;;;;;;;3.54;64.09;101093.91;5015506;28;20065;-54
2023/03/05 01:11:22;;;;;;;16.90;6.00;;;;;;;3.50;64.25;101094.59;5023647;28;20077;-57
2023/03/05 01:13:48;;;;;;;15.52;6.05;;;;;;;3.51;64.22;101090.34;5023491;28;20162;-55
2023/03/05 01:16:15;;;;;;;17.73;5.90;;;;;;;3.49;64.33;101085.16;5020583;28;20069;-54
2023/03/05 01:18:42;;;;;;;14.05;5.97;;;;;;;3.48;63.59;101075.72;5014450;28;20046;-55
2023/03/05 01:21:09;;;;;;;16.20;5.55;;;;;;;3.45;63.82;101075.59;5012298;28;20081;-54
2023/03/05 01:23:36;;;;;;;13.52;5.47;;;;;;;3.43;64.08;101072.97;5009645;28;20053;-56
2023/03/05 01:26:03;;;;;;;12.68;5.60;;;;;;;3.40;63.92;101071.94;5015823;28;20045;-54
2023/03/05 01:28:31;;;;;;;9.77;3.90;;;;;;;3.40;63.74;101060.03;5013019;28;20041;-54
2023/03/05 01:30:57;;;;;;;7.55;4.75;;;;;;;3.38;64.10;101064.19;5012333;28;20824;-57
2023/03/05 01:33:24;;;;;;;12.48;5.75;;;;;;;3.38;64.77;101058.22;5009738;28;20464;-56
2023/03/05 01:35:51;;;;;;;12.82;5.20;;;;;;;3.34;63.89;101047.81;5012019;28;20100;-56
2023/03/05 01:38:17;;;;;;;15.85;6.50;;;;;;;3.37;64.08;101057.31;5015561;28;20042;-56
2023/03/05 01:40:44;;;;;;;15.60;6.10;;;;;;;3.36;64.77;101050.47;5012802;28;20604;-56
2023/03/05 01:46:28;;;;;;;17.80;6.65;;;;;;;3.34;63.70;101049.50;5037813;27;20932;-55
2023/03/05 01:51:40;;;;;;;17.73;7.57;;;;;;;3.33;63.78;101048.66;5099108;27;20404;-56
2023/03/05 01:54:10;;;;;;;14.80;6.15;;;;;;;3.33;64.34;101040.97;5058082;28;20048;-56
2023/03/05 01:56:38;;;;;;;19.73;7.35;;;;;;;3.32;64.62;101035.78;5077251;28;20450;-56
2023/03/05 01:59:05;;;;;;;13.75;6.28;;;;;;;3.31;64.80;101040.00;5078188;28;20125;-53
2023/03/05 02:01:38;;;;;;;16.23;7.15;;;;;;;3.32;64.14;101034.06;5074270;28;20049;-55
2023/03/05 02:04:07;;;;;;;14.18;5.05;;;;;;;3.32;64.27;101026.38;5075973;28;20131;-56
2023/03/05 02:06:34;;;;;;;19.73;6.63;;;;;;;3.31;64.76;101029.75;5074546;28;20045;-54
2023/03/05 02:09:01;;;;;;;15.27;6.35;;;;;;;3.29;64.91;101021.16;5079581;28;20052;-55
2023/03/05 02:11:28;;;;;;;15.77;7.00;;;;;;;3.27;64.33;101015.06;5094582;28;20044;-56
2023/03/05 02:13:55;;;;;;;15.05;6.63;;;;;;;3.29;64.56;101015.16;5088308;28;20127;-56
2023/03/05 02:16:22;;;;;;;16.52;7.07;;;;;;;3.27;64.35;101012.53;5092497;28;20455;-55
2023/03/05 02:18:48;;;;;;;15.68;6.07;;;;;;;3.26;64.56;101008.22;5090744;28;20054;-57
2023/03/05 02:21:27;;;;;;;12.10;5.75;;;;;;;3.26;64.72;101000.53;5090574;28;20083;-55
2023/03/05 02:23:53;;;;;;;14.43;3.55;;;;;;;3.25;64.95;101000.47;5086619;28;20083;-57
2023/03/05 02:26:20;;;;;;;22.27;7.97;;;;;;;3.24;64.03;101003.84;5090907;28;20052;-56
2023/03/05 02:28:53;;;;;;;17.13;6.45;;;;;;;3.25;64.27;100996.22;5098920;28;20051;-55
2023/03/05 02:31:22;;;;;;;17.08;6.18;;;;;;;3.24;64.18;100993.59;5087459;28;20048;-54
2023/03/05 02:33:49;;;;;;;15.73;6.22;;;;;;;3.24;63.85;100994.47;5093041;28;20056;-54
2023/03/05 02:36:17;;;;;;;17.42;5.55;;;;;;;3.23;64.47;100992.72;5087023;28;20043;-55
2023/03/05 02:38:44;;;;;;;15.68;7.25;;;;;;;3.23;64.29;100997.84;5086014;28;20122;-55
2023/03/05 02:41:11;;;;;;;8.70;3.80;;;;;;;3.17;64.18;100987.31;5068054;28;20074;-55
2023/03/05 02:43:38;;;;;;;17.85;6.60;;;;;;;3.18;64.17;100984.81;5089943;28;20302;-56
2023/03/05 02:46:05;;;;;;;16.63;6.75;;;;;;;3.18;64.93;100983.97;5087345;28;20040;-54
2023/03/05 02:48:32;;;;;;;19.17;6.90;;;;;;;3.20;64.35;100982.34;5086372;28;20173;-55
2023/03/05 02:51:01;;;;;;;16.77;7.35;;;;;;;3.20;64.93;100982.34;5095849;28;20545;-57
2023/03/05 02:53:28;;;;;;;15.02;6.65;;;;;;;3.20;64.71;100978.09;5091106;28;20139;-55
2023/03/05 02:55:54;;;;;;;17.15;7.03;;;;;;;3.21;64.42;100976.44;5085898;28;20075;-54
2023/03/05 02:58:21;;;;;;;17.05;7.15;;;;;;;3.23;64.65;100977.34;5093287;28;20093;-56
2023/03/05 03:00:47;;;;;;;14.55;6.82;;;;;;;3.22;65.00;100965.38;5087915;28;20076;-54
2023/03/05 03:03:15;;;;;;;15.20;6.03;;;;;;;3.21;64.80;100968.75;5072271;28;20044;-54
2023/03/05 03:05:41;;;;;;;18.02;6.93;;;;;;;3.20;64.90;100961.84;5070902;28;20045;-56
2023/03/05 03:08:09;;;;;;;18.58;7.38;;;;;;;3.19;64.22;100955.00;5074546;28;20052;-55
2023/03/05 03:10:36;;;;;;;16.73;6.38;;;;;;;3.19;64.32;100949.88;5074449;28;20568;-56
2023/03/05 03:13:02;;;;;;;13.93;6.40;;;;;;;3.18;64.80;100943.88;5078151;28;20108;-57
2023/03/05 03:15:29;;;;;;;15.63;6.40;;;;;;;3.16;64.01;100945.50;5072100;28;20446;-55
2023/03/05 03:17:56;;;;;;;17.52;6.88;;;;;;;3.16;64.99;100937.81;5067371;28;20083;-55
2023/03/05 03:20:22;;;;;;;18.17;6.63;;;;;;;3.13;65.04;100934.25;5072826;28;20089;-54
2023/03/05 03:22:49;;;;;;;12.68;5.05;;;;;;;3.13;64.75;100934.25;5075373;28;20044;-53
2023/03/05 03:25:19;;;;;;;16.33;6.05;;;;;;;3.12;64.79;100935.06;5073111;28;20052;-55
2023/03/05 03:27:46;;;;;;;13.93;5.15;;;;;;;3.10;64.37;100934.13;5079757;28;20085;-57
2023/03/05 03:30:14;;;;;;;13.15;5.75;;;;;;;3.10;64.82;100936.69;5070999;28;20040;-54
2023/03/05 03:32:41;;;;;;;18.90;7.32;;;;;;;3.08;65.31;100932.38;5074345;28;20099;-55
2023/03/05 03:35:09;;;;;;;13.23;4.72;;;;;;;3.07;65.05;100924.63;5075498;28;20052;-57
2023/03/05 03:37:36;;;;;;;16.05;6.20;;;;;;;3.04;65.24;100930.50;5074804;28;20135;-54
2023/03/05 03:40:04;;;;;;;24.65;6.03;;;;;;;2.97;64.28;100918.22;5071557;28;20128;-54
2023/03/05 03:42:31;;;;;;;14.15;6.03;;;;;;;2.98;64.04;100914.91;5074098;28;20055;-55
2023/03/05 03:44:59;;;;;;;14.68;6.28;;;;;;;3.00;64.84;100913.25;5081149;28;20076;-57
2023/03/05 03:47:26;;;;;;;13.38;5.15;;;;;;;2.99;64.23;100911.50;5073406;28;20076;-53
2023/03/05 03:49:53;;;;;;;15.75;4.63;;;;;;;2.99;64.59;100908.94;5077993;28;20043;-54
2023/03/05 03:52:21;;;;;;;14.48;5.82;;;;;;;2.99;63.96;100903.84;5075387;28;20044;-56
2023/03/05 03:54:51;;;;;;;13.70;6.13;;;;;;;2.99;64.96;100893.59;5076354;28;20063;-55
2023/03/05 03:57:18;;;;;;;17.42;6.05;;;;;;;3.00;65.07;100891.94;5083089;28;20437;-56
2023/03/05 03:59:44;;;;;;;9.80;4.85;;;;;;;2.98;64.31;100889.28;5071980;28;20528;-54
2023/03/05 04:02:11;;;;;;;12.52;5.05;;;;;;;2.98;64.07;100878.16;5075487;28;20083;-55
2023/03/05 04:04:38;;;;;;;14.93;6.15;;;;;;;2.97;64.86;100877.28;5074532;28;20119;-54
2023/03/05 04:07:05;;;;;;;14.88;6.07;;;;;;;2.95;65.14;100874.66;5073095;28;20509;-56
2023/03/05 04:09:31;;;;;;;13.98;5.65;;;;;;;2.96;63.89;100870.44;5075327;28;20089;-55
2023/03/05 04:11:58;;;;;;;14.80;5.90;;;;;;;2.94;65.07;100866.94;5071951;28;20044;-54
2023/03/05 04:14:25;;;;;;;14.20;6.32;;;;;;;2.95;64.72;100866.13;5073527;28;20475;-53
2023/03/05 04:16:52;;;;;;;14.63;5.38;;;;;;;2.94;64.72;100852.44;5076477;28;20105;-56
2023/03/05 04:19:19;;;;;;;14.00;6.28;;;;;;;2.96;64.16;100849.94;5075197;28;20091;-54
2023/03/05 04:21:45;;;;;;;16.83;6.20;;;;;;;2.95;64.14;100843.09;5080526;28;20044;-55
2023/03/05 04:24:12;;;;;;;13.88;5.90;;;;;;;2.95;64.22;100843.09;5080281;28;20044;-54
2023/03/05 04:26:38;;;;;;;19.17;7.20;;;;;;;2.93;64.02;100842.16;5067660;28;20052;-54
2023/03/05 04:29:05;;;;;;;16.00;6.32;;;;;;;2.91;63.77;100841.22;5074749;28;20066;-57
2023/03/05 04:31:32;;;;;;;15.18;7.22;;;;;;;2.90;64.90;100844.59;5074547;28;20131;-56
2023/03/05 04:33:59;;;;;;;13.13;6.13;;;;;;;2.86;65.01;100842.69;5077545;28;20139;-54
2023/03/05 04:36:25;;;;;;;18.00;6.03;;;;;;;2.84;64.15;100845.22;5076605;28;20741;-55
2023/03/05 04:38:52;;;;;;;12.48;6.07;;;;;;;2.82;64.51;100841.72;5077045;28;20134;-55
2023/03/05 04:41:18;;;;;;;15.40;6.22;;;;;;;2.79;64.64;100839.91;5073735;28;20086;-57
2023/03/05 04:43:45;;;;;;;14.13;4.68;;;;;;;2.77;64.36;100838.94;5075351;28;20048;-55
2023/03/05 04:46:11;;;;;;;17.02;5.47;;;;;;;2.75;64.09;100835.47;5075959;28;20048;-55
2023/03/05 04:48:38;;;;;;;15.90;5.63;;;;;;;2.75;64.30;100840.59;5071564;28;20052;-54
2023/03/05 04:51:05;;;;;;;14.15;5.97;;;;;;;2.73;63.97;100837.06;5077710;28;20086;-55
2023/03/05 04:53:32;;;;;;;13.80;6.03;;;;;;;2.70;64.62;100832.72;5073051;28;20049;-56
2023/03/05 04:56:00;;;;;;;14.38;5.88;;;;;;;2.69;63.80;100824.97;5074630;28;20040;-53
2023/03/05 04:58:27;;;;;;;9.32;4.50;;;;;;;2.65;64.07;100817.97;5070817;28;20996;-55
2023/03/05 05:00:54;;;;;;;14.43;5.18;;;;;;;2.64;64.06;100821.34;5076252;28;20862;-56
2023/03/05 05:03:20;;;;;;;12.68;4.05;;;;;;;2.62;63.86;100817.84;5069702;28;20502;-56
2023/03/05 05:05:54;;;;;;;12.45;4.22;;;;;;;2.62;64.07;100828.06;5069696;28;20101;-56
2023/03/05 05:08:21;;;;;;;14.80;5.47;;;;;;;2.61;65.37;100826.31;5067644;28;20072;-57
2023/03/05 05:11:06;;;;;;;16.00;6.78;;;;;;;2.61;64.01;100826.31;5068300;28;20125;-54
2023/03/05 05:13:34;;;;;;;15.57;6.60;;;;;;;2.61;65.15;100822.09;5077322;28;20503;-55
2023/03/05 05:16:00;;;;;;;18.48;6.65;;;;;;;2.63;63.95;100824.72;5078171;28;20040;-53
2023/03/05 05:18:27;;;;;;;15.82;5.65;;;;;;;2.63;65.20;100814.50;5072340;28;20059;-55
2023/03/05 05:20:54;;;;;;;13.85;6.40;;;;;;;2.63;64.94;100815.34;5078504;28;20450;-53
2023/03/05 05:23:20;;;;;;;15.02;5.72;;;;;;;2.64;65.01;100804.28;5075343;28;20040;-55
2023/03/05 05:25:55;;;;;;;15.68;5.82;;;;;;;2.63;65.20;100800.00;5071512;28;20056;-55
2023/03/05 05:28:22;;;;;;;15.68;5.88;;;;;;;2.65;65.23;100797.50;5068641;28;20516;-55
2023/03/05 05:30:49;;;;;;;17.17;5.70;;;;;;;2.64;64.87;100790.66;5078306;28;20036;-53
2023/03/05 05:33:15;;;;;;;17.05;5.70;;;;;;;2.65;65.09;100787.28;5071579;28;20076;-54
2023/03/05 05:35:42;;;;;;;14.55;6.07;;;;;;;2.64;65.12;100775.31;5072908;28;20105;-54
2023/03/05 05:38:08;;;;;;;16.30;6.57;;;;;;;2.65;64.51;100777.03;5073867;28;20058;-55
2023/03/05 05:40:35;;;;;;;16.45;6.38;;;;;;;2.65;64.51;100775.38;5076046;28;20055;-55
2023/03/05 05:43:02;;;;;;;17.10;6.50;;;;;;;2.66;63.92;100779.66;5069255;28;20071;-54
2023/03/05 05:45:28;;;;;;;15.93;6.65;;;;;;;2.66;63.97;100768.56;5073739;28;20079;-53
2023/03/05 05:47:55;;;;;;;20.13;6.75;;;;;;;2.66;64.83;100761.75;5072692;28;20534;-55
2023/03/05 05:50:22;;;;;;;14.05;7.00;;;;;;;2.65;64.06;100756.59;5076383;28;20075;-53
2023/03/05 05:52:50;;;;;;;14.88;6.00;;;;;;;2.64;65.00;100755.69;5074258;28;20087;-54
2023/03/05 05:55:17;;;;;;;20.77;6.65;;;;;;;2.65;64.33;100757.47;5081796;28;20044;-55
2023/03/05 05:57:43;;;;;;;16.00;6.47;;;;;;;2.65;65.30;100751.47;5071165;28;20118;-54
2023/03/05 06:00:15;;;;;;;16.75;6.75;;;;;;;2.65;63.76;100751.47;5073319;28;20508;-55
2023/03/05 06:02:42;;;;;;;19.15;7.25;;;;;;;2.65;64.53;100747.25;5072112;28;20075;-54
2023/03/05 06:05:12;;;;;;;18.80;6.15;;;;;;;2.67;64.69;100757.53;5070377;28;20036;-54
2023/03/05 06:07:39;;;;;;;16.50;6.20;;;;;;;2.65;63.82;100751.47;5074856;28;20554;-54
2023/03/05 06:10:06;;;;;;;14.30;5.45;;;;;;;2.65;64.82;100757.47;5070929;28;20044;-54
2023/03/05 06:12:33;;;;;;;14.40;6.97;;;;;;;2.65;64.79;100747.25;5072019;28;20081;-55
2023/03/05 06:14:59;;;;;;;20.55;7.20;;;;;;;2.66;64.01;100753.19;5070122;28;20068;-54
2023/03/05 06:17:27;;;;;;;17.38;6.93;;;;;;;2.65;65.21;100738.69;5073788;28;20105;-55
2023/03/05 06:19:57;;;;;;;13.85;6.10;;;;;;;2.65;64.20;100742.13;5073454;28;20626;-54
2023/03/05 06:22:24;;;;;;;17.27;6.65;;;;;;;2.64;65.31;100735.22;5071644;28;20055;-52
2023/03/05 06:24:50;;;;;;;16.75;6.72;;;;;;;2.65;64.32;100733.56;5071379;28;20056;-54
2023/03/05 06:27:17;;;;;;;15.25;6.47;;;;;;;2.64;64.36;100734.38;5071666;28;20075;-56
2023/03/05 06:29:43;;;;;;;18.42;6.45;;;;;;;2.66;65.04;100742.97;5069537;28;20561;-54
2023/03/05 06:32:10;;;;;;;16.83;6.22;;;;;;;2.66;64.04;100742.97;5067509;28;20131;-56
2023/03/05 06:34:36;;;;;;;16.17;6.97;;;;;;;2.65;65.31;100736.13;5070255;28;20550;-53
2023/03/05 06:37:03;;;;;;;17.27;6.63;;;;;;;2.63;64.54;100737.75;5079117;28;20495;-55
2023/03/05 06:39:30;;;;;;;15.00;6.25;;;;;;;2.63;64.45;100737.75;5075492;28;20043;-54
2023/03/05 06:41:57;;;;;;;19.67;6.97;;;;;;;2.61;64.36;100730.03;5078877;28;20044;-54
2023/03/05 06:44:24;;;;;;;18.60;7.55;;;;;;;2.60;64.18;100738.47;5080338;28;20437;-54
2023/03/05 06:46:51;;;;;;;16.52;6.95;;;;;;;2.61;64.68;100729.13;5079094;28;20602;-53
2023/03/05 06:49:18;;;;;;;20.67;8.02;;;;;;;2.60;64.67;100727.41;5081734;28;20063;-54
2023/03/05 06:51:44;;;;;;;27.10;10.55;;;;;;;2.60;65.03;100727.41;5079440;28;20052;-56
2023/03/05 06:54:14;;;;;;;26.17;9.27;;;;;;;2.62;64.06;100728.31;5071830;28;20072;-56
2023/03/05 06:56:44;;;;;;;17.92;7.68;;;;;;;2.60;64.33;100738.47;5076265;28;20048;-53
2023/03/05 06:59:12;;;;;;;15.43;6.97;;;;;;;2.61;65.17;100744.47;5069331;28;20044;-54
2023/03/05 07:01:39;;;;;;;17.48;6.15;;;;;;;2.58;65.19;100727.31;5072630;28;20052;-55
2023/03/05 07:04:06;;;;;;;21.05;8.85;;;;;;;2.60;64.49;100727.41;5077036;28;20050;-56
2023/03/05 07:06:35;;;;;;;23.15;9.27;;;;;;;2.59;64.55;100735.84;5068933;28;20503;-55
2023/03/05 07:09:04;;;;;;;44.72;15.98;;;;;;;2.61;64.70;100730.03;5074697;28;20051;-55
2023/03/05 07:11:31;;;;;;;27.10;10.30;;;;;;;2.62;63.95;100731.75;5076945;28;20098;-56
2023/03/05 07:13:58;;;;;;;68.55;18.67;;;;;;;2.65;64.62;100728.44;5075740;28;20076;-55
2023/03/05 07:16:27;;;;;;;55.53;15.32;;;;;;;2.66;65.31;100728.50;5075053;28;20044;-54
2023/03/05 07:18:56;;;;;;;46.20;15.75;;;;;;;2.68;65.22;100726.03;5076261;28;20131;-56
2023/03/05 07:21:27;;;;;;;26.52;11.15;;;;;;;2.69;65.18;100714.97;5075912;28;20060;-57
2023/03/05 07:23:55;;;;;;;23.65;10.07;;;;;;;2.71;64.51;100726.16;5075524;28;20060;-55
2023/03/05 07:26:22;;;;;;;30.92;10.63;;;;;;;2.73;63.91;100719.38;5077019;28;20080;-54
2023/03/05 07:28:49;;;;;;;25.15;9.52;;;;;;;2.75;64.27;100717.78;5079670;28;20086;-54
2023/03/05 07:31:18;;;;;;;24.52;8.30;;;;;;;2.77;63.89;100715.28;5072908;28;20130;-55
2023/03/05 07:33:47;;;;;;;19.20;7.70;;;;;;;2.77;65.19;100717.84;5072461;28;20075;-54
2023/03/05 07:36:15;;;;;;;16.77;6.88;;;;;;;2.76;64.23;100718.63;5069051;28;20139;-55
2023/03/05 07:38:41;;;;;;;16.83;6.28;;;;;;;2.78;64.10;100712.78;5075324;28;20048;-54
2023/03/05 07:41:11;;;;;;;12.57;5.13;;;;;;;2.79;65.38;100711.97;5071619;28;20037;-56
2023/03/05 07:43:38;;;;;;;24.08;7.60;;;;;;;2.82;64.60;100712.09;5077808;28;20052;-54
2023/03/05 07:46:07;;;;;;;18.95;6.25;;;;;;;2.85;64.39;100707.91;5073103;28;20569;-53
2023/03/05 07:48:34;;;;;;;13.57;5.32;;;;;;;2.87;65.21;100711.41;5079185;28;20223;-55
2023/03/05 07:51:02;;;;;;;29.58;8.07;;;;;;;2.91;64.49;100705.59;5073436;28;20056;-55
2023/03/05 07:53:29;;;;;;;22.33;7.05;;;;;;;2.93;64.47;100696.28;5075056;28;20711;-54
2023/03/05 07:55:55;;;;;;;17.58;6.43;;;;;;;2.95;64.59;100697.22;5077967;28;20642;-55
2023/03/05 07:58:22;;;;;;;22.52;8.00;;;;;;;3.01;65.12;100694.03;5075700;28;20043;-56
2023/03/05 08:00:49;;;;;;;24.08;8.35;;;;;;;3.05;65.29;100691.66;5073841;28;20076;-54
2023/03/05 08:03:16;;;;;;;20.27;6.97;;;;;;;3.12;65.27;100686.75;5074109;28;20124;-54
2023/03/05 08:05:43;;;;;;;25.90;8.25;;;;;;;3.16;65.23;100683.50;5074655;28;20091;-55
2023/03/05 08:08:09;;;;;;;19.73;6.45;;;;;;;3.21;65.19;100687.97;5068227;28;20611;-56
2023/03/05 08:10:37;;;;;;;21.13;7.97;;;;;;;3.25;64.29;100682.97;5075761;28;20040;-55
2023/03/05 08:13:04;;;;;;;36.35;10.57;;;;;;;3.27;64.26;100674.53;5075502;28;20105;-54
2023/03/05 08:15:31;;;;;;;20.52;6.95;;;;;;;3.30;64.57;100679.78;5071789;28;20097;-54
2023/03/05 08:17:58;;;;;;;22.25;7.97;;;;;;;3.34;65.08;100679.06;5070392;28;20068;-55
2023/03/05 08:20:25;;;;;;;24.05;8.50;;;;;;;3.40;64.09;100677.53;5074347;28;20144;-55
2023/03/05 08:22:52;;;;;;;21.90;8.07;;;;;;;3.44;64.89;100672.59;5070068;28;20114;-55
2023/03/05 08:25:18;;;;;;;25.10;8.45;;;;;;;3.49;64.12;100671.88;5072847;28;20097;-54
2023/03/05 08:27:46;;;;;;;23.17;7.57;;;;;;;3.52;64.14;100675.44;5073081;28;20056;-54
2023/03/05 08:30:17;;;;;;;32.30;10.07;;;;;;;3.56;63.92;100664.50;5070992;28;20135;-56
2023/03/05 08:32:43;;;;;;;28.30;8.90;;;;;;;3.63;64.81;100644.19;5075023;28;20107;-54
2023/03/05 08:35:10;;;;;;;25.70;7.78;;;;;;;3.68;64.27;100653.78;5071696;28;20131;-54
2023/03/05 08:37:37;;;;;;;25.15;7.45;;;;;;;3.72;64.72;100645.41;5071260;28;20128;-54
2023/03/05 08:40:04;;;;;;;25.45;7.25;;;;;;;3.76;64.52;100648.97;5066894;28;20141;-55
2023/03/05 08:42:31;;;;;;;25.15;8.88;;;;;;;3.80;64.98;100643.13;5071922;28;20040;-55
2023/03/05 08:44:58;;;;;;;36.22;10.65;;;;;;;3.83;64.54;100632.97;5071060;28;20125;-54
2023/03/05 08:47:25;;;;;;;50.95;11.20;;;;;;;3.92;64.23;100636.66;5071077;28;20052;-55
2023/03/05 08:49:54;;;;;;;49.58;13.80;;;;;;;3.97;64.20;100640.25;5073031;28;20525;-56
2023/03/05 08:52:21;;;;;;;55.20;12.88;;;;;;;4.01;64.12;100626.72;5075647;28;20146;-54
2023/03/05 08:54:48;;;;;;;26.88;8.52;;;;;;;4.06;64.47;100630.28;5075632;28;20125;-55
2023/03/05 08:57:14;;;;;;;35.85;9.48;;;;;;;4.09;64.38;100630.41;5072209;28;20467;-55
2023/03/05 08:59:41;;;;;;;44.20;11.35;;;;;;;4.11;64.19;100628.78;5071459;28;20092;-52
2023/03/05 09:02:10;;;;;;;19.27;6.65;;;;;;;4.16;64.06;100630.63;5072681;28;20068;-54
2023/03/05 09:04:37;;;;;;;20.38;7.38;;;;;;;4.18;64.38;100623.81;5070965;28;20036;-56
2023/03/05 09:07:04;;;;;;;25.10;7.22;;;;;;;4.21;63.94;100624.81;5071983;28;20114;-56
2023/03/05 09:09:32;;;;;;;18.23;5.80;;;;;;;4.26;63.93;100626.66;5072697;28;20060;-56
2023/03/05 09:12:00;;;;;;;15.10;6.43;;;;;;;4.27;63.95;100621.59;5070971;28;20155;-56
2023/03/05 09:14:27;;;;;;;15.80;5.35;;;;;;;4.30;63.94;100615.69;5075753;28;20585;-55
2023/03/05 09:16:55;;;;;;;15.27;6.43;;;;;;;4.31;63.78;100618.28;5069101;28;20541;-54
2023/03/05 09:19:22;;;;;;;15.65;5.97;;;;;;;4.32;63.62;100607.19;5079569;28;20163;-55
2023/03/05 09:21:49;;;;;;;18.63;6.35;;;;;;;4.37;63.83;100609.91;5073651;28;20097;-55
2023/03/05 09:24:16;;;;;;;14.07;6.05;;;;;;;4.42;63.44;100597.25;5075121;28;20060;-55
2023/03/05 09:26:43;;;;;;;5.97;2.90;;;;;;;4.43;63.68;100596.41;5072309;28;20091;-54
2023/03/05 09:29:09;;;;;;;10.32;3.78;;;;;;;4.44;63.32;100591.34;5073882;28;20097;-53
2023/03/05 09:31:37;;;;;;;11.45;5.10;;;;;;;4.49;63.83;100588.91;5066353;28;20076;-52
2023/03/05 09:34:05;;;;;;;14.63;5.85;;;;;;;4.55;63.18;100599.34;5069646;28;20131;-55
2023/03/05 09:36:31;;;;;;;13.18;5.53;;;;;;;4.56;63.38;100603.66;5071717;28;20457;-57
2023/03/05 09:38:58;;;;;;;7.45;3.35;;;;;;;4.57;62.97;100584.91;5071681;28;20101;-55
2023/03/05 09:41:49;;;;;;;12.73;5.93;;;;;;;4.60;62.75;100587.53;5071358;28;20049;-55
2023/03/05 09:50:03;;;;;;;14.63;5.57;;;;;;;4.78;63.52;100570.97;5064501;27;20407;-55
2023/03/05 09:52:38;;;;;;;14.10;6.05;;;;;;;4.86;63.47;100566.91;5025936;28;20077;-56
2023/03/05 09:55:12;;;;;;;14.30;6.03;;;;;;;4.96;63.49;100564.63;5047618;28;20068;-57
2023/03/05 09:57:48;;;;;;;14.63;5.50;;;;;;;5.07;62.63;100558.06;5049958;28;20041;-54
2023/03/05 10:03:00;;;;;;;18.23;5.68;;;;;;;5.30;62.75;100555.28;5070613;27;20370;-56
2023/03/05 10:05:42;;;;;;;13.82;5.28;;;;;;;5.37;62.85;100546.91;5028728;28;20655;-56
2023/03/05 10:08:10;;;;;;;11.63;5.38;;;;;;;5.40;61.96;100536.72;4996149;28;20108;-56
2023/03/05 10:10:44;;;;;;;14.52;4.13;;;;;;;5.42;62.25;100548.72;4997364;28;20085;-57
2023/03/05 10:13:24;;;;;;;11.13;5.07;;;;;;;5.40;61.18;100540.97;4972822;28;20097;-56
2023/03/05 10:18:58;;;;;;;11.13;4.97;;;;;;;5.40;61.54;100534.16;5040523;27;20402;-56
2023/03/05 10:21:34;;;;;;;14.77;6.82;;;;;;;5.46;61.90;100530.00;5010834;28;20140;-54
2023/03/05 10:29:51;;;;;;;14.27;7.28;;;;;;;5.82;61.47;100526.63;5046911;28;20379;-57
2023/03/05 10:35:23;;;;;;;42.30;16.27;;;;;;;6.13;62.23;100514.53;5005684;28;20408;-56
2023/03/05 10:46:17;;;;;;;20.73;7.50;;;;;;;6.64;61.08;100501.03;5057035;27;20401;-56
2023/03/05 10:48:53;;;;;;;15.07;6.00;;;;;;;6.64;60.68;100501.91;5014429;28;20042;-57
2023/03/05 10:54:10;;;;;;;13.13;4.38;;;;;;;6.59;59.94;100493.22;5073314;27;20855;-57
2023/03/05 10:56:37;;;;;;;8.95;4.10;;;;;;;6.53;59.19;100500.81;5024165;28;20050;-57
2023/03/05 10:59:03;;;;;;;8.02;3.95;;;;;;;6.45;60.20;100492.06;5023215;28;20701;-56
2023/03/05 11:01:31;;;;;;;13.02;5.47;;;;;;;6.41;59.37;100484.28;5022726;28;20042;-57
2023/03/05 11:06:37;;;;;;;15.38;5.93;;;;;;;6.35;59.25;100484.13;5045779;28;20753;-55
2023/03/05 11:14:44;;;;;;;10.85;6.70;;;;;;;6.27;59.27;100472.81;5088919;27;20384;-57
2023/03/05 11:39:15;;;;;;;9.63;5.93;;;;;;;6.07;59.92;100437.22;5070621;27;20394;-56
2023/03/05 11:41:49;;;;;;;11.98;4.60;;;;;;;6.07;59.82;100438.91;5024308;28;20897;-56
2023/03/05 11:44:27;;;;;;;8.98;3.80;;;;;;;6.06;58.94;100434.63;5037726;28;20084;-57
2023/03/05 11:47:18;;;;;;;11.73;5.70;;;;;;;6.05;59.08;100426.06;5021224;28;20145;-54
2023/03/05 11:49:47;;;;;;;10.55;6.55;;;;;;;6.09;59.98;100414.13;5020751;28;20116;-55
2023/03/05 11:52:21;;;;;;;9.45;3.50;;;;;;;6.09;59.70;100404.72;5016690;28;21206;-56
2023/03/05 11:55:11;;;;;;;12.25;6.13;;;;;;;6.09;59.31;100399.56;5015905;28;20080;-55
2023/03/05 11:57:46;;;;;;;11.00;5.10;;;;;;;6.11;60.22;100390.16;5020157;28;20457;-56
2023/03/05 12:00:16;;;;;;;12.90;6.68;;;;;;;6.15;59.39;100394.53;5019156;28;20054;-55
2023/03/05 12:02:47;;;;;;;10.65;5.53;;;;;;;6.15;58.60;100389.41;5016752;28;20133;-55
2023/03/05 12:05:14;;;;;;;11.88;4.88;;;;;;;6.14;59.67;100382.53;5022972;28;20049;-56
2023/03/05 12:07:46;;;;;;;10.57;5.72;;;;;;;6.17;60.10;100377.44;5016729;28;20073;-56
2023/03/05 12:10:16;;;;;;;11.05;5.68;;;;;;;6.22;59.61;100381.81;5020867;28;20077;-56
2023/03/05 12:12:57;;;;;;;10.35;3.33;;;;;;;6.22;59.59;100376.69;5015212;28;20417;-55
2023/03/05 12:29:56;;;;;;;6.63;3.13;;;;;;;6.17;59.58;100349.16;5084138;27;20369;-56
2023/03/05 12:35:38;;;;;;;9.00;2.63;;;;;;;6.19;59.17;100338.03;5025101;27;20402;-55
2023/03/05 12:38:18;;;;;;;6.88;4.38;;;;;;;6.22;60.56;100332.94;5034884;28;20421;-56
2023/03/05 12:40:52;;;;;;;7.75;3.95;;;;;;;6.21;58.84;100324.34;5021511;28;20137;-56
2023/03/05 12:43:29;;;;;;;4.90;2.67;;;;;;;6.18;59.74;100332.00;5023297;28;20128;-56
2023/03/05 12:46:25;;;;;;;5.78;3.30;;;;;;;6.13;60.38;100313.94;5024478;28;20041;-58
2023/03/05 12:48:51;;;;;;;9.10;2.83;;;;;;;6.15;59.17;100306.25;5017522;28;20054;-58
2023/03/05 12:51:37;;;;;;;6.70;3.40;;;;;;;6.10;59.87;100306.16;5023374;28;20037;-60
2023/03/05 12:54:25;;;;;;;16.88;6.00;;;;;;;6.11;59.91;100305.28;5022871;28;20046;-56